Main page
METAR-TAF:

METAR-TAF

Airports :

Kuwait International Airport

Kuwait City, Kuwait

latitude: 29-13N, longitude: 047-59E, elevation: 55 m

Current weather observation

The report was made 1 hour and 1 minutes ago, at 13:00 UTC
Wind 16 kt from the North/Northwest
Temperature 15°C
Humidity 27%
Pressure 1026 hPa
Visibility 10 km or more
no clouds below 1500 m and no cumulonimbus

METAR: OKBK 211300Z 34016KT CAVOK 15/M04 Q1026 NOSIG

Time: 17:01 (14:01 UTC)

Forecast

The report was made 3 hours and 16 minutes ago, at 10:45 UTC
Forecast valid from 21 at 12 UTC to 22 at 18 UTC
Wind 12 kt from the North/Northwest with gusts up to 22 kt
Visibility: 7000 m

TAF: OKBK 211045Z 2112/2218 34012G22KT 7000 NSC

Weather observations and forecasts of more than 4000 airports (METAR and TAF reports).

The available stations are represented by yellow and red dots on the map.

Hover mouse over dot to see the name of the station.

Then click to see weather observations and forecasts.

To change the map : click on the green buttons with a black cross to zoom in, on the green button with a dash to zoom out, or on the green arrows for adjacent maps.


METAR-TAF: